createdAt,value
2023-11-12T00:02:04.954Z,97.94
2023-11-12T00:04:36.962Z,97.89
2023-11-12T00:07:09.976Z,97.75
2023-11-12T00:09:42.591Z,97.92
2023-11-12T00:12:14.786Z,97.74
2023-11-12T00:14:47.130Z,97.88
2023-11-12T00:17:21.377Z,97.90
2023-11-12T00:19:53.405Z,97.88
2023-11-12T00:22:25.937Z,97.88
2023-11-12T00:24:57.921Z,97.89
2023-11-12T00:27:29.826Z,97.89
2023-11-12T00:30:01.996Z,98.00
2023-11-12T00:32:34.963Z,97.67
2023-11-12T00:35:08.124Z,97.86
2023-11-12T00:37:43.211Z,97.58
2023-11-12T00:40:17.558Z,97.62
2023-11-12T00:42:49.614Z,97.79
2023-11-12T00:45:21.592Z,97.70
2023-11-12T00:47:53.883Z,97.44
2023-11-12T00:50:25.836Z,97.68
2023-11-12T00:52:57.935Z,97.42
2023-11-12T00:55:33.108Z,97.49
2023-11-12T00:58:05.090Z,97.50
2023-11-12T01:00:36.978Z,97.67
2023-11-12T01:03:09.873Z,97.56
2023-11-12T01:05:42.084Z,97.33
2023-11-12T01:08:14.180Z,97.22
2023-11-12T01:10:46.710Z,97.30
2023-11-12T01:13:19.622Z,97.15
2023-11-12T01:15:57.414Z,97.09
2023-11-12T01:18:33.348Z,96.75
2023-11-12T01:21:06.588Z,96.96
2023-11-12T01:23:43.796Z,96.92
2023-11-12T01:26:20.334Z,96.88
2023-11-12T01:28:59.723Z,96.65
2023-11-12T01:31:31.994Z,96.45
2023-11-12T01:34:04.376Z,96.74
2023-11-12T01:36:36.928Z,96.83
2023-11-12T01:39:09.541Z,96.62
2023-11-12T01:41:44.399Z,96.73
2023-11-12T01:44:16.400Z,96.64
2023-11-12T01:46:49.569Z,96.79
2023-11-12T01:49:23.812Z,96.52
2023-11-12T01:51:56.071Z,96.43
2023-11-12T01:54:29.288Z,96.53
2023-11-12T01:57:01.959Z,96.42
2023-11-12T01:59:35.557Z,96.70
2023-11-12T02:02:08.038Z,96.54
2023-11-12T02:04:40.366Z,96.35
2023-11-12T02:07:14.492Z,96.41
2023-11-12T02:09:46.600Z,96.41
2023-11-12T02:12:18.642Z,96.35
2023-11-12T02:14:53.189Z,96.07
2023-11-12T02:17:26.433Z,96.17
2023-11-12T02:20:06.299Z,96.31
2023-11-12T02:22:38.731Z,96.01
2023-11-12T02:25:12.193Z,96.01
2023-11-12T02:27:46.080Z,96.18
2023-11-12T02:30:20.371Z,96.07
2023-11-12T02:32:52.496Z,95.90
2023-11-12T02:35:24.719Z,95.83
2023-11-12T02:37:56.781Z,95.55
2023-11-12T02:40:28.737Z,95.61
2023-11-12T02:43:03.711Z,95.73
2023-11-12T02:45:35.889Z,95.51
2023-11-12T02:48:09.009Z,95.51
2023-11-12T02:50:41.203Z,95.36
2023-11-12T02:53:13.514Z,95.38
2023-11-12T02:55:46.127Z,95.21
2023-11-12T02:58:18.706Z,95.25
2023-11-12T03:00:50.985Z,95.18
2023-11-12T03:03:23.567Z,95.20
2023-11-12T03:05:55.753Z,94.80
2023-11-12T03:08:27.771Z,95.00
2023-11-12T03:11:00.137Z,94.82
2023-11-12T03:13:34.444Z,94.86
2023-11-12T03:16:07.059Z,94.86
2023-11-12T03:18:39.071Z,94.51
2023-11-12T03:21:13.373Z,94.53
2023-11-12T03:23:45.351Z,94.39
2023-11-12T03:26:17.383Z,94.42
2023-11-12T03:28:49.381Z,94.30
2023-11-12T03:31:21.332Z,94.26
2023-11-12T03:33:54.527Z,94.20
2023-11-12T03:36:26.554Z,94.18
2023-11-12T03:38:58.489Z,94.06
2023-11-12T03:41:30.398Z,94.01
2023-11-12T03:44:02.360Z,94.13
2023-11-12T03:46:35.662Z,94.10
2023-11-12T03:49:08.899Z,94.04
2023-11-12T03:51:40.853Z,93.97
2023-11-12T03:54:14.107Z,93.93
2023-11-12T03:56:46.336Z,93.80
2023-11-12T03:59:18.370Z,93.90
2023-11-12T04:01:50.460Z,93.89
2023-11-12T04:04:22.419Z,93.96
2023-11-12T04:06:56.609Z,93.96
2023-11-12T04:09:28.590Z,94.04
2023-11-12T04:12:00.974Z,94.04
2023-11-12T04:14:33.277Z,94.10
2023-11-12T04:17:05.891Z,93.92
2023-11-12T04:19:40.354Z,94.19
2023-11-12T04:22:12.642Z,94.25
2023-11-12T04:24:44.849Z,94.16
2023-11-12T04:27:19.477Z,94.27
2023-11-12T04:29:51.968Z,94.17
2023-11-12T04:32:24.351Z,94.16
2023-11-12T04:34:57.439Z,94.15
2023-11-12T04:37:30.651Z,94.29
2023-11-12T04:40:05.016Z,94.30
2023-11-12T04:42:37.046Z,94.42
2023-11-12T04:45:10.665Z,94.59
2023-11-12T04:47:42.632Z,94.43
2023-11-12T04:50:16.092Z,94.90
2023-11-12T04:52:48.505Z,94.83
2023-11-12T04:55:21.231Z,95.05
2023-11-12T04:57:53.167Z,95.14
2023-11-12T05:00:25.223Z,95.14
2023-11-12T05:02:57.672Z,95.25
2023-11-12T05:05:29.624Z,95.47
2023-11-12T05:08:01.898Z,95.41
2023-11-12T05:10:44.703Z,95.54
2023-11-12T05:13:18.141Z,95.77
2023-11-12T05:15:50.117Z,95.73
2023-11-12T05:18:24.709Z,95.73
2023-11-12T05:20:56.723Z,95.93
2023-11-12T05:23:28.633Z,95.85
2023-11-12T05:26:01.296Z,95.88
2023-11-12T05:28:33.301Z,96.09
2023-11-12T05:31:05.588Z,96.13
2023-11-12T05:33:37.924Z,95.88
2023-11-12T05:36:10.829Z,96.20
2023-11-12T05:38:42.815Z,96.27
2023-11-12T05:41:14.751Z,96.26
2023-11-12T05:43:46.869Z,96.43
2023-11-12T05:46:18.967Z,96.40
2023-11-12T05:48:50.953Z,96.45
2023-11-12T05:51:24.607Z,96.40
2023-11-12T05:53:56.677Z,96.38
2023-11-12T05:56:29.807Z,96.50
2023-11-12T05:59:04.109Z,96.74
2023-11-12T06:01:36.066Z,96.66
2023-11-12T06:04:09.437Z,96.61
2023-11-12T06:06:42.782Z,96.65
2023-11-12T06:09:14.904Z,96.68
2023-11-12T06:11:48.332Z,96.62
2023-11-12T06:14:20.315Z,96.86
2023-11-12T06:16:52.596Z,96.88
2023-11-12T06:19:24.574Z,96.87
2023-11-12T06:21:57.493Z,96.81
2023-11-12T06:24:29.630Z,96.91
2023-11-12T06:27:01.973Z,97.04
2023-11-12T06:29:34.372Z,96.84
2023-11-12T06:32:08.078Z,96.98
2023-11-12T06:34:40.004Z,96.93
2023-11-12T06:37:12.188Z,96.96
2023-11-12T06:39:44.129Z,97.10
2023-11-12T06:42:17.047Z,97.11
2023-11-12T06:44:49.311Z,97.19
2023-11-12T06:47:21.464Z,97.08
2023-11-12T06:49:56.794Z,96.99
2023-11-12T06:52:29.513Z,97.21
2023-11-12T06:55:03.434Z,97.21
2023-11-12T06:57:36.001Z,97.19
2023-11-12T07:00:10.690Z,97.08
2023-11-12T07:02:42.675Z,97.40
2023-11-12T07:05:14.738Z,97.41
2023-11-12T07:07:46.888Z,97.38
2023-11-12T07:10:20.773Z,97.16
2023-11-12T07:12:53.133Z,97.18
2023-11-12T07:15:25.507Z,97.23
2023-11-12T07:17:58.065Z,97.15
2023-11-12T07:20:33.779Z,97.15
2023-11-12T07:23:05.953Z,97.13
2023-11-12T07:25:40.039Z,97.35
2023-11-12T07:28:11.946Z,96.99
2023-11-12T07:30:44.120Z,97.30
2023-11-12T07:33:16.058Z,97.10
2023-11-12T07:35:49.088Z,97.08
2023-11-12T07:38:21.957Z,97.28
2023-11-12T07:40:53.996Z,97.11
2023-11-12T07:43:26.427Z,97.13
2023-11-12T07:46:01.165Z,97.16
2023-11-12T07:48:33.760Z,96.83
2023-11-12T07:51:06.220Z,96.74
2023-11-12T07:53:38.455Z,96.82
2023-11-12T07:56:11.862Z,96.60
2023-11-12T07:58:44.013Z,96.58
2023-11-12T08:01:19.395Z,96.65
2023-11-12T08:03:51.475Z,96.54
2023-11-12T08:06:23.889Z,96.47
2023-11-12T08:08:56.257Z,96.15
2023-11-12T08:11:29.708Z,95.84
2023-11-12T08:14:01.927Z,95.71
2023-11-12T08:16:34.122Z,95.86
2023-11-12T08:19:07.188Z,95.67
2023-11-12T08:21:39.271Z,95.70
2023-11-12T08:24:12.360Z,95.52
2023-11-12T08:26:44.670Z,95.25
2023-11-12T08:29:18.029Z,95.42
2023-11-12T08:31:51.434Z,95.28
2023-11-12T08:34:25.875Z,94.93
2023-11-12T08:36:58.250Z,94.80
2023-11-12T08:39:30.365Z,94.83
2023-11-12T08:42:02.471Z,94.62
2023-11-12T08:44:34.814Z,94.39
2023-11-12T08:47:07.836Z,94.36
2023-11-12T08:49:40.481Z,94.26
2023-11-12T08:52:15.843Z,94.19
2023-11-12T08:54:48.172Z,93.98
2023-11-12T08:57:21.025Z,93.99
2023-11-12T08:59:54.811Z,93.98
2023-11-12T09:02:28.757Z,93.90
2023-11-12T09:05:00.884Z,93.94
2023-11-12T09:07:32.960Z,93.79
2023-11-12T09:10:05.911Z,93.88
2023-11-12T09:12:38.426Z,93.77
2023-11-12T09:15:12.574Z,93.84
2023-11-12T09:17:44.697Z,93.83
2023-11-12T09:20:17.397Z,93.63
2023-11-12T09:22:49.362Z,93.56
2023-11-12T09:25:21.602Z,93.44
2023-11-12T09:27:53.592Z,93.32
2023-11-12T09:30:28.372Z,93.19
2023-11-12T09:33:06.080Z,93.19
2023-11-12T09:35:40.436Z,93.13
2023-11-12T09:38:14.448Z,93.16
2023-11-12T09:40:46.687Z,92.96
2023-11-12T09:43:18.633Z,92.84
2023-11-12T09:45:57.168Z,92.77
2023-11-12T09:48:36.686Z,92.63
2023-11-12T09:51:09.745Z,92.52
2023-11-12T09:53:43.201Z,92.30
2023-11-12T09:56:15.665Z,92.02
2023-11-12T09:58:49.359Z,91.81
2023-11-12T10:01:22.526Z,91.63
2023-11-12T10:03:54.518Z,91.74
2023-11-12T10:06:27.055Z,91.74
2023-11-12T10:09:01.608Z,91.17
2023-11-12T10:11:34.783Z,91.12
2023-11-12T10:14:17.550Z,91.20
2023-11-12T10:16:49.621Z,90.98
2023-11-12T10:19:21.657Z,90.78
2023-11-12T10:21:57.931Z,90.93
2023-11-12T10:24:31.178Z,90.58
2023-11-12T10:27:07.059Z,89.71
2023-11-12T10:29:39.080Z,89.70
2023-11-12T10:32:24.942Z,89.36
2023-11-12T10:34:57.003Z,89.58
2023-11-12T10:37:29.597Z,89.19
2023-11-12T10:40:10.053Z,88.89
2023-11-12T10:42:42.024Z,88.99
2023-11-12T10:45:17.628Z,88.36
2023-11-12T10:47:50.247Z,88.92
2023-11-12T10:50:23.609Z,88.72
2023-11-12T10:52:58.268Z,88.68
2023-11-12T10:55:30.561Z,88.75
2023-11-12T10:58:04.926Z,88.78
2023-11-12T11:00:37.185Z,88.68
2023-11-12T11:03:10.339Z,89.00
2023-11-12T11:05:43.673Z,88.61
2023-11-12T11:08:15.618Z,88.46
2023-11-12T11:10:49.951Z,88.47
2023-11-12T11:13:22.268Z,88.71
2023-11-12T11:15:56.617Z,88.73
2023-11-12T11:18:57.644Z,88.29
2023-11-12T11:21:30.776Z,88.01
2023-11-12T11:24:03.657Z,87.74
2023-11-12T11:26:41.537Z,87.38
2023-11-12T11:29:18.241Z,87.01
2023-11-12T11:32:19.357Z,86.75
2023-11-12T11:34:53.190Z,86.31
2023-11-12T11:37:26.102Z,86.18
2023-11-12T11:40:19.145Z,86.23
2023-11-12T11:43:32.676Z,85.71
2023-11-12T11:46:16.011Z,85.55
2023-11-12T11:49:20.817Z,85.40
2023-11-12T11:51:52.790Z,85.12
2023-11-12T11:54:28.188Z,85.11
2023-11-12T11:57:02.774Z,84.38
2023-11-12T11:59:38.443Z,84.31
2023-11-12T12:02:17.188Z,84.32
2023-11-12T12:04:51.727Z,84.26
2023-11-12T12:07:25.807Z,83.58
2023-11-12T12:10:00.075Z,83.27
2023-11-12T12:12:37.527Z,82.78
2023-11-12T12:15:12.710Z,82.71
2023-11-12T12:17:45.035Z,82.61
2023-11-12T12:20:17.230Z,82.28
2023-11-12T12:22:49.435Z,82.25
2023-11-12T12:25:21.744Z,81.77
2023-11-12T12:27:57.019Z,81.83
2023-11-12T12:30:29.201Z,81.37
2023-11-12T12:33:14.993Z,81.59
2023-11-12T12:35:47.153Z,81.36
2023-11-12T12:38:21.252Z,81.46
2023-11-12T12:41:02.040Z,81.24
2023-11-12T12:46:50.421Z,80.67
2023-11-12T12:49:33.973Z,80.54
2023-11-12T12:52:08.187Z,80.44
2023-11-12T12:54:43.266Z,80.74
2023-11-12T12:57:15.269Z,80.43
2023-11-12T12:59:47.443Z,80.14
2023-11-12T13:02:19.496Z,80.37
2023-11-12T13:04:53.974Z,80.19
2023-11-12T13:07:29.084Z,80.33
2023-11-12T13:10:01.704Z,80.41
2023-11-12T13:12:34.868Z,80.18
2023-11-12T13:15:10.919Z,80.38
2023-11-12T13:17:43.254Z,80.20
2023-11-12T13:20:16.411Z,80.22
2023-11-12T13:22:49.592Z,80.26
2023-11-12T13:25:21.840Z,80.36
2023-11-12T13:27:56.074Z,80.12
2023-11-12T13:30:28.277Z,80.17
2023-11-12T13:33:00.336Z,79.85
2023-11-12T13:35:32.513Z,79.69
2023-11-12T13:38:04.478Z,79.49
2023-11-12T13:40:36.761Z,79.13
2023-11-12T13:43:09.500Z,79.29
2023-11-12T13:45:44.444Z,78.82
2023-11-12T13:48:16.531Z,78.46
2023-11-12T13:50:50.990Z,78.52
2023-11-12T13:53:25.479Z,78.50
2023-11-12T13:56:00.306Z,78.46
2023-11-12T13:58:34.567Z,78.81
2023-11-12T14:01:07.762Z,79.02
2023-11-12T14:03:41.682Z,79.52
2023-11-12T14:06:14.874Z,79.43
2023-11-12T14:08:47.966Z,79.53
2023-11-12T14:11:19.883Z,79.33
2023-11-12T14:13:52.614Z,79.37
2023-11-12T14:16:25.040Z,79.45
2023-11-12T14:18:57.224Z,79.60
2023-11-12T14:21:29.564Z,79.52
2023-11-12T14:24:02.326Z,79.55
2023-11-12T14:26:34.583Z,79.56
2023-11-12T14:29:08.666Z,79.73
2023-11-12T14:31:40.807Z,79.95
2023-11-12T14:34:14.174Z,80.43
2023-11-12T14:36:46.425Z,80.27
2023-11-12T14:39:23.776Z,80.36
2023-11-12T14:41:56.288Z,80.25
2023-11-12T14:44:29.190Z,80.48
2023-11-12T14:47:01.581Z,80.80
2023-11-12T14:49:33.596Z,80.53
2023-11-12T14:52:06.480Z,80.75
2023-11-12T14:54:38.676Z,80.81
2023-11-12T14:57:10.684Z,81.38
2023-11-12T14:59:43.518Z,81.25
2023-11-12T15:02:15.451Z,81.43
2023-11-12T15:04:47.527Z,81.10
2023-11-12T15:07:19.765Z,81.57
2023-11-12T15:09:52.155Z,81.90
2023-11-12T15:12:26.948Z,81.65
2023-11-12T15:14:58.946Z,82.18
2023-11-12T15:17:33.687Z,82.08
2023-11-12T15:20:10.520Z,81.89
2023-11-12T15:22:44.910Z,81.82
2023-11-12T15:25:17.881Z,82.26
2023-11-12T15:27:51.225Z,82.26
2023-11-12T15:30:25.967Z,82.46
2023-11-12T15:32:58.142Z,82.28
2023-11-12T15:35:30.543Z,83.03
2023-11-12T15:38:02.704Z,82.43
2023-11-12T15:40:36.744Z,82.30
2023-11-12T15:43:10.059Z,82.41
2023-11-12T15:45:42.288Z,82.74
2023-11-12T15:48:14.443Z,82.52
2023-11-12T15:50:48.650Z,82.93
2023-11-12T15:53:21.765Z,83.04
2023-11-12T15:55:54.154Z,83.09
2023-11-12T15:58:26.919Z,83.16
2023-11-12T16:01:00.322Z,83.40
2023-11-12T16:03:33.483Z,83.46
2023-11-12T16:06:07.058Z,83.84
2023-11-12T16:08:46.173Z,83.96
2023-11-12T16:11:28.627Z,84.18
2023-11-12T16:14:02.410Z,84.14
2023-11-12T16:16:35.246Z,84.62
2023-11-12T16:19:07.912Z,84.98
2023-11-12T16:21:39.932Z,85.39
2023-11-12T16:24:13.060Z,85.32
2023-11-12T16:26:45.134Z,85.83
2023-11-12T16:29:17.405Z,86.28
2023-11-12T16:31:50.205Z,86.61
2023-11-12T16:34:22.305Z,86.62
2023-11-12T16:36:54.759Z,87.20
2023-11-12T16:39:28.902Z,87.18
2023-11-12T16:42:03.528Z,87.41
2023-11-12T16:44:35.633Z,87.74
2023-11-12T16:47:08.753Z,87.85
2023-11-12T16:49:41.882Z,87.92
2023-11-12T16:52:14.569Z,88.16
2023-11-12T16:54:47.009Z,87.87
2023-11-12T16:57:19.226Z,88.28
2023-11-12T16:59:51.683Z,88.18
2023-11-12T17:02:23.981Z,88.51
2023-11-12T17:04:56.504Z,88.55
2023-11-12T17:07:31.733Z,88.58
2023-11-12T17:10:04.988Z,88.72
2023-11-12T17:12:39.617Z,88.67
2023-11-12T17:15:13.074Z,88.80
2023-11-12T17:17:48.598Z,88.87
2023-11-12T17:20:21.494Z,88.90
2023-11-12T17:22:53.459Z,88.91
2023-11-12T17:25:29.178Z,88.95
2023-11-12T17:28:01.811Z,88.96
2023-11-12T17:30:35.829Z,88.79
2023-11-12T17:33:13.707Z,88.48
2023-11-12T17:35:46.093Z,88.61
2023-11-12T17:38:19.617Z,88.72
2023-11-12T17:40:51.709Z,88.90
2023-11-12T17:43:26.267Z,88.56
2023-11-12T17:45:58.328Z,88.72
2023-11-12T17:48:31.942Z,88.70
2023-11-12T17:51:04.095Z,88.63
2023-11-12T17:53:37.705Z,88.66
2023-11-12T17:56:10.731Z,88.63
2023-11-12T17:58:45.825Z,88.60
2023-11-12T18:01:19.913Z,88.76
2023-11-12T18:03:58.837Z,88.77
2023-11-12T18:06:34.343Z,88.68
2023-11-12T18:09:06.681Z,88.77
2023-11-12T18:11:40.791Z,89.03
2023-11-12T18:14:16.311Z,89.24
2023-11-12T18:16:48.688Z,89.31
2023-11-12T18:19:21.421Z,89.37
2023-11-12T18:21:58.347Z,89.18
2023-11-12T18:24:30.769Z,89.40
2023-11-12T18:27:03.030Z,89.26
2023-11-12T18:29:35.116Z,89.35
2023-11-12T18:32:08.189Z,89.41
2023-11-12T18:34:40.729Z,89.51
2023-11-12T18:37:13.147Z,89.73
2023-11-12T18:39:45.841Z,89.60
2023-11-12T18:42:17.903Z,89.20
2023-11-12T18:44:50.120Z,89.32
2023-11-12T18:47:24.638Z,89.33
2023-11-12T18:49:59.809Z,89.52
2023-11-12T18:52:32.826Z,89.37
2023-11-12T18:55:05.109Z,89.52
2023-11-12T18:57:37.732Z,89.75
2023-11-12T19:00:12.561Z,89.86
2023-11-12T19:02:45.034Z,89.83
2023-11-12T19:05:19.910Z,89.79
2023-11-12T19:07:52.430Z,89.76
2023-11-12T19:10:24.631Z,89.87
2023-11-12T19:12:56.791Z,89.74
2023-11-12T19:15:28.689Z,89.78
2023-11-12T19:18:01.040Z,89.84
2023-11-12T19:20:35.569Z,89.70
2023-11-12T19:23:08.213Z,89.66
2023-11-12T19:25:44.348Z,89.52
2023-11-12T19:28:19.160Z,89.53
2023-11-12T19:30:54.680Z,89.66
2023-11-12T19:33:29.525Z,89.41
2023-11-12T19:36:04.727Z,89.41
2023-11-12T19:38:39.184Z,89.34
2023-11-12T19:41:15.857Z,89.36
2023-11-12T19:43:49.513Z,89.19
2023-11-12T19:46:22.805Z,89.18
2023-11-12T19:48:55.295Z,89.23
2023-11-12T19:51:30.307Z,89.39
2023-11-12T19:54:04.683Z,89.14
2023-11-12T19:56:41.405Z,89.37
2023-11-12T19:59:14.628Z,89.10
2023-11-12T20:01:49.583Z,89.13
2023-11-12T20:04:26.387Z,89.23
2023-11-12T20:07:00.460Z,89.17
2023-11-12T20:09:33.121Z,89.13
2023-11-12T20:12:06.476Z,89.06
2023-11-12T20:14:39.048Z,89.16
2023-11-12T20:17:15.201Z,89.09
2023-11-12T20:19:48.337Z,89.03
2023-11-12T20:22:20.332Z,89.35
2023-11-12T20:24:52.345Z,89.10
2023-11-12T20:27:24.475Z,89.12
2023-11-12T20:29:59.377Z,89.21
2023-11-12T20:32:32.579Z,89.16
2023-11-12T20:35:05.003Z,89.24
2023-11-12T20:37:37.128Z,89.46
2023-11-12T20:40:11.393Z,89.36
2023-11-12T20:42:44.302Z,89.45
2023-11-12T20:45:18.988Z,89.34
2023-11-12T20:47:54.455Z,89.34
2023-11-12T20:50:36.732Z,89.39
2023-11-12T20:53:09.814Z,89.49
2023-11-12T20:55:44.789Z,89.34
2023-11-12T20:58:18.252Z,89.24
2023-11-12T21:00:56.542Z,89.45
2023-11-12T21:03:29.140Z,89.46
2023-11-12T21:06:01.311Z,89.43
2023-11-12T21:08:35.741Z,89.45
2023-11-12T21:11:11.580Z,89.28
2023-11-12T21:13:44.616Z,89.39
2023-11-12T21:16:18.439Z,89.22
2023-11-12T21:18:52.459Z,88.94
2023-11-12T21:21:25.454Z,88.98
2023-11-12T21:23:57.971Z,88.78
2023-11-12T21:26:32.938Z,88.30
2023-11-12T21:29:05.152Z,87.91
2023-11-12T21:31:39.821Z,87.93
2023-11-12T21:34:12.046Z,88.05
2023-11-12T21:36:45.364Z,88.64
2023-11-12T21:39:18.472Z,88.65
2023-11-12T21:41:50.430Z,88.42
2023-11-12T21:44:25.058Z,88.72
2023-11-12T21:46:59.978Z,88.48
2023-11-12T21:49:31.985Z,88.62
2023-11-12T21:52:05.062Z,88.57
2023-11-12T21:54:37.626Z,88.56
2023-11-12T21:57:09.743Z,88.67
2023-11-12T21:59:44.718Z,88.54
2023-11-12T22:02:19.400Z,88.51
2023-11-12T22:04:52.036Z,88.52
2023-11-12T22:07:26.085Z,88.44
2023-11-12T22:09:58.058Z,88.70
2023-11-12T22:12:30.069Z,88.69
2023-11-12T22:15:01.972Z,88.52
2023-11-12T22:17:35.753Z,88.53
2023-11-12T22:20:15.168Z,88.62
2023-11-12T22:22:49.103Z,88.55
2023-11-12T22:25:21.879Z,88.64
2023-11-12T22:27:56.365Z,88.48
2023-11-12T22:30:28.293Z,88.54
2023-11-12T22:33:00.449Z,88.55
2023-11-12T22:35:35.292Z,88.44
2023-11-12T22:38:08.316Z,88.46
2023-11-12T22:40:40.443Z,88.65
2023-11-12T22:43:12.466Z,88.26
2023-11-12T22:45:44.538Z,88.32
2023-11-12T22:48:16.765Z,88.30
2023-11-12T22:50:48.762Z,88.25
2023-11-12T22:53:21.715Z,88.46
2023-11-12T22:55:53.816Z,88.34
2023-11-12T22:58:26.294Z,88.34
2023-11-12T23:01:04.464Z,88.07
2023-11-12T23:03:39.374Z,88.01
2023-11-12T23:06:12.143Z,88.12
2023-11-12T23:08:46.878Z,88.22
2023-11-12T23:11:18.877Z,88.05
2023-11-12T23:13:51.077Z,88.14
2023-11-12T23:16:24.768Z,88.05
2023-11-12T23:18:56.755Z,87.96
2023-11-12T23:21:29.184Z,87.84
2023-11-12T23:24:01.200Z,87.93
2023-11-12T23:26:33.167Z,87.88
2023-11-12T23:29:05.436Z,87.84
2023-11-12T23:31:37.425Z,87.82
2023-11-12T23:34:09.565Z,87.81
2023-11-12T23:36:42.359Z,87.80
2023-11-12T23:39:15.385Z,87.79
2023-11-12T23:41:47.541Z,87.86
2023-11-12T23:44:19.716Z,87.89
2023-11-12T23:46:51.723Z,87.73
2023-11-12T23:49:23.733Z,87.80
2023-11-12T23:51:55.660Z,87.95
2023-11-12T23:54:27.621Z,87.74
2023-11-12T23:56:59.513Z,87.72
2023-11-12T23:59:32.936Z,87.82
